Time;durP1;ratioP1;P1;durP2;ratioP2;P2;SDS_P1;SDS_P2;PMS_P1;PMS_P2;Temp;Humidity;BMP_temperature;BMP_pressure;BME280_temperature;BME280_humidity;BME280_pressure;Samples;Min_cycle;Max_cycle;Signal;HPM_P1;HPM_P2
2023/11/18 00:01:15;;;;;;;21.70;15.90;;;8.00;99.90;;;;;;5092967;28;20165;-89
2023/11/18 00:03:40;;;;;;;27.17;14.93;;;8.00;99.90;;;;;;5092700;28;20028;-89
2023/11/18 00:06:07;;;;;;;25.67;16.08;;;8.00;99.90;;;;;;5091327;28;20050;-88
2023/11/18 00:08:33;;;;;;;25.95;15.63;;;7.90;99.90;;;;;;5092204;28;20036;-88
2023/11/18 00:10:59;;;;;;;23.35;15.93;;;7.90;99.90;;;;;;5092479;28;20028;-88
2023/11/18 00:13:26;;;;;;;20.95;14.88;;;7.90;99.90;;;;;;5091606;28;20027;-88
2023/11/18 00:15:52;;;;;;;24.60;15.40;;;7.90;99.90;;;;;;5092737;28;20391;-89
2023/11/18 00:18:18;;;;;;;27.90;15.43;;;7.90;99.90;;;;;;5092183;28;20028;-88
2023/11/18 00:20:44;;;;;;;24.65;15.02;;;7.80;99.90;;;;;;5095104;28;20059;-90
2023/11/18 00:23:10;;;;;;;24.83;15.45;;;7.80;99.90;;;;;;5096731;28;20035;-89
2023/11/18 00:25:39;;;;;;;22.27;14.88;;;7.80;99.90;;;;;;5094949;28;20020;-89
2023/11/18 00:28:07;;;;;;;22.85;14.38;;;7.80;99.90;;;;;;5095859;28;20484;-88
2023/11/18 00:30:33;;;;;;;22.27;15.43;;;7.80;99.90;;;;;;5096031;28;20107;-89
2023/11/18 00:32:58;;;;;;;18.02;14.05;;;7.80;99.90;;;;;;5094771;28;20464;-89
2023/11/18 00:35:24;;;;;;;21.33;14.65;;;7.70;99.90;;;;;;5095590;28;20046;-89
2023/11/18 00:37:49;;;;;;;23.30;14.93;;;7.70;99.90;;;;;;5095625;28;20032;-89
2023/11/18 00:40:17;;;;;;;23.13;15.40;;;7.80;99.90;;;;;;5099820;28;20020;-88
2023/11/18 00:42:44;;;;;;;24.23;15.50;;;7.70;99.90;;;;;;5097691;28;20078;-89
2023/11/18 00:45:12;;;;;;;24.48;15.18;;;7.70;99.90;;;;;;5096378;28;20024;-89
2023/11/18 00:47:38;;;;;;;26.83;14.10;;;7.70;99.90;;;;;;5095011;28;20024;-88
2023/11/18 00:50:08;;;;;;;21.67;13.68;;;7.70;99.90;;;;;;5095506;28;20031;-90
2023/11/18 00:52:33;;;;;;;21.67;14.02;;;7.70;99.90;;;;;;5095218;28;20479;-88
2023/11/18 00:54:59;;;;;;;27.42;14.88;;;7.70;99.90;;;;;;5094750;28;20036;-89
2023/11/18 00:57:25;;;;;;;16.48;13.60;;;7.70;99.90;;;;;;5095659;28;20464;-89
2023/11/18 00:59:50;;;;;;;20.38;13.85;;;7.70;99.90;;;;;;5095640;28;20440;-86
2023/11/18 01:02:17;;;;;;;18.75;12.88;;;7.60;99.90;;;;;;5095369;28;20060;-88
2023/11/18 01:04:45;;;;;;;20.17;14.23;;;7.60;99.90;;;;;;5095324;28;20024;-89
2023/11/18 01:07:11;;;;;;;16.38;13.00;;;7.60;99.90;;;;;;5095615;28;20038;-90
2023/11/18 01:09:38;;;;;;;16.42;12.93;;;7.70;99.90;;;;;;5094446;28;20016;-88
2023/11/18 01:12:05;;;;;;;23.10;13.93;;;7.70;99.90;;;;;;5094120;28;20111;-87
2023/11/18 01:14:31;;;;;;;21.90;13.68;;;7.60;99.90;;;;;;5094647;28;20465;-88
2023/11/18 01:16:57;;;;;;;20.73;13.93;;;7.70;99.90;;;;;;5099331;28;20050;-88
2023/11/18 01:19:23;;;;;;;33.38;13.48;;;7.70;99.90;;;;;;5099761;28;20392;-87
2023/11/18 01:21:49;;;;;;;21.75;12.40;;;8.20;99.90;;;;;;5100769;28;20173;-89
2023/11/18 01:24:16;;;;;;;21.02;13.35;;;7.60;99.90;;;;;;5097499;28;20078;-88
2023/11/18 01:26:41;;;;;;;22.27;12.65;;;7.60;99.90;;;;;;5095480;28;20047;-87
2023/11/18 01:29:07;;;;;;;19.42;13.52;;;7.50;99.90;;;;;;5094606;28;20500;-90
2023/11/18 01:31:33;;;;;;;21.85;13.75;;;7.60;99.90;;;;;;5095134;28;20110;-90
2023/11/18 01:33:59;;;;;;;20.48;12.57;;;7.60;99.90;;;;;;5095421;28;20043;-89
2023/11/18 01:36:25;;;;;;;20.52;12.60;;;7.60;99.90;;;;;;5104200;28;20020;-88
2023/11/18 01:38:51;;;;;;;21.42;12.88;;;7.50;99.90;;;;;;5101189;28;20056;-89
2023/11/18 01:41:16;;;;;;;20.20;12.38;;;7.50;99.90;;;;;;5096098;28;20066;-89
2023/11/18 01:43:46;;;;;;;20.80;12.05;;;7.50;99.90;;;;;;5094121;28;20051;-89
2023/11/18 01:46:12;;;;;;;22.52;12.70;;;7.50;99.90;;;;;;5094064;28;20028;-91
2023/11/18 01:48:39;;;;;;;22.55;13.10;;;7.50;99.90;;;;;;5094454;28;20036;-89
2023/11/18 01:51:07;;;;;;;19.10;12.60;;;7.50;99.90;;;;;;5094117;28;20021;-89
2023/11/18 01:53:35;;;;;;;23.33;13.95;;;7.50;99.90;;;;;;5093927;28;20031;-89
2023/11/18 01:56:02;;;;;;;22.88;12.98;;;7.50;99.90;;;;;;5094909;28;20066;-90
2023/11/18 01:58:30;;;;;;;23.58;14.35;;;7.60;99.90;;;;;;5093792;28;20536;-86
2023/11/18 02:00:56;;;;;;;25.10;13.15;;;7.50;99.90;;;;;;5094257;28;20103;-90
2023/11/18 02:03:22;;;;;;;18.40;12.15;;;7.50;99.90;;;;;;5094416;28;20424;-89
2023/11/18 02:05:47;;;;;;;18.38;12.75;;;8.40;99.90;;;;;;5094020;28;20016;-89
2023/11/18 02:08:14;;;;;;;24.25;12.65;;;7.50;99.90;;;;;;5094695;28;20020;-89
2023/11/18 02:10:48;;;;;;;25.15;11.90;;;7.50;99.90;;;;;;5094830;28;20058;-90
2023/11/18 02:13:25;;;;;;;18.85;12.20;;;7.60;99.90;;;;;;5094917;28;20137;-90
2023/11/18 02:15:53;;;;;;;21.70;12.57;;;7.60;99.90;;;;;;5094921;28;20483;-90
2023/11/18 02:18:20;;;;;;;19.10;12.30;;;7.60;99.90;;;;;;5086074;28;20109;-90
2023/11/18 02:20:47;;;;;;;16.85;11.52;;;7.60;99.90;;;;;;5094301;28;20063;-91
2023/11/18 02:23:13;;;;;;;17.83;11.90;;;7.60;99.90;;;;;;5094715;28;20395;-91
2023/11/18 02:25:44;;;;;;;21.05;11.80;;;7.50;99.90;;;;;;5093674;28;20030;-90
2023/11/18 02:28:10;;;;;;;22.63;13.48;;;7.60;99.90;;;;;;5098196;28;20035;-88
2023/11/18 02:30:35;;;;;;;21.63;12.13;;;7.50;99.90;;;;;;5107278;28;20035;-91
2023/11/18 02:33:14;;;;;;;19.15;11.77;;;7.60;99.90;;;;;;5093622;28;20036;-91
2023/11/18 02:35:57;;;;;;;21.30;12.65;;;7.60;99.90;;;;;;5093730;28;20062;-90
2023/11/18 02:38:36;;;;;;;18.70;12.25;;;7.60;99.90;;;;;;5093744;28;20020;-89
2023/11/18 02:41:08;;;;;;;15.52;12.27;;;7.60;99.90;;;;;;5093790;28;20035;-89
2023/11/18 02:43:37;;;;;;;19.25;12.88;;;7.80;99.90;;;;;;5093070;28;20480;-89
2023/11/18 02:46:04;;;;;;;18.33;13.27;;;7.50;99.90;;;;;;5093525;28;20085;-89
2023/11/18 02:48:32;;;;;;;22.55;13.48;;;7.50;99.90;;;;;;5093267;28;20078;-89
2023/11/18 02:50:58;;;;;;;18.63;13.65;;;7.50;99.90;;;;;;5097975;28;20027;-90
2023/11/18 02:53:24;;;;;;;20.58;13.85;;;7.50;99.90;;;;;;5092535;28;20020;-89
2023/11/18 02:55:52;;;;;;;21.92;14.05;;;7.50;99.90;;;;;;5093265;28;20039;-89
2023/11/18 02:58:18;;;;;;;22.50;13.52;;;7.50;99.90;;;;;;5093093;28;20103;-90
2023/11/18 03:00:44;;;;;;;21.50;14.45;;;7.50;99.90;;;;;;5093518;28;20067;-89
2023/11/18 03:03:10;;;;;;;20.70;14.02;;;7.50;99.90;;;;;;5098837;28;20039;-90
2023/11/18 03:05:36;;;;;;;18.92;14.13;;;7.50;99.90;;;;;;5095803;28;20076;-90
2023/11/18 03:08:05;;;;;;;26.65;15.27;;;7.50;99.90;;;;;;5105287;28;20024;-90
2023/11/18 03:10:34;;;;;;;24.77;14.73;;;7.60;99.90;;;;;;5096169;28;20090;-90
2023/11/18 03:13:01;;;;;;;23.48;14.32;;;7.50;99.90;;;;;;5096125;28;20020;-90
2023/11/18 03:15:28;;;;;;;17.85;14.13;;;7.50;99.90;;;;;;5095516;28;20028;-90
2023/11/18 03:17:54;;;;;;;24.50;15.27;;;7.50;99.90;;;;;;5095037;28;20028;-90
2023/11/18 03:20:22;;;;;;;21.73;15.65;;;7.60;99.90;;;;;;5093173;28;20020;-91
2023/11/18 03:22:52;;;;;;;19.80;15.65;;;7.50;99.90;;;;;;5092303;28;20047;-90
2023/11/18 03:25:21;;;;;;;21.50;15.30;;;7.50;99.90;;;;;;5099745;28;20020;-90
2023/11/18 03:27:47;;;;;;;20.23;14.98;;;7.50;99.90;;;;;;5099558;28;20024;-91
2023/11/18 03:30:14;;;;;;;18.75;14.52;;;7.50;99.90;;;;;;5094333;28;20035;-91
2023/11/18 03:32:40;;;;;;;22.17;15.80;;;7.50;99.90;;;;;;5095666;28;20443;-90
2023/11/18 03:35:08;;;;;;;19.73;15.07;;;7.60;99.90;;;;;;5096828;28;20026;-91
2023/11/18 03:37:34;;;;;;;20.45;14.73;;;7.60;99.90;;;;;;5094711;28;20559;-90
2023/11/18 03:40:00;;;;;;;32.15;17.05;;;7.60;99.90;;;;;;5093794;28;20028;-90
2023/11/18 03:42:27;;;;;;;21.27;15.25;;;7.60;99.90;;;;;;5091175;28;20388;-91
2023/11/18 03:44:52;;;;;;;20.35;15.27;;;7.60;99.90;;;;;;5093888;28;20032;-91
2023/11/18 03:47:18;;;;;;;19.88;15.88;;;7.60;99.90;;;;;;5093288;28;20089;-91
2023/11/18 03:49:43;;;;;;;26.15;16.52;;;7.60;99.90;;;;;;5092778;28;20060;-90
2023/11/18 03:52:09;;;;;;;22.05;15.80;;;7.50;99.90;;;;;;5093471;28;20031;-90
2023/11/18 03:54:35;;;;;;;23.70;16.52;;;7.50;99.90;;;;;;5094774;28;20124;-90
2023/11/18 03:57:00;;;;;;;28.60;17.58;;;7.50;99.90;;;;;;5096138;28;20043;-90
2023/11/18 03:59:26;;;;;;;30.83;17.45;;;7.50;99.90;;;;;;5097308;28;20032;-90
2023/11/18 04:01:51;;;;;;;29.02;16.35;;;7.50;99.90;;;;;;5097055;28;20028;-91
2023/11/18 04:04:17;;;;;;;33.00;18.10;;;7.50;99.90;;;;;;5096149;28;20077;-89
2023/11/18 04:06:43;;;;;;;22.67;16.77;;;7.50;99.90;;;;;;5096763;28;20027;-89
2023/11/18 04:09:10;;;;;;;27.45;16.95;;;7.60;99.90;;;;;;5096786;28;20107;-90
2023/11/18 04:11:36;;;;;;;29.95;17.13;;;7.50;99.90;;;;;;5096490;28;20032;-90
2023/11/18 04:14:03;;;;;;;23.00;15.85;;;7.50;99.90;;;;;;5097029;28;20099;-90
2023/11/18 04:16:29;;;;;;;25.27;16.73;;;7.50;99.90;;;;;;5096875;28;20028;-90
2023/11/18 04:18:55;;;;;;;27.40;16.58;;;7.50;99.90;;;;;;5117228;28;20044;-90
2023/11/18 04:21:21;;;;;;;30.05;16.90;;;7.50;99.90;;;;;;5100344;28;20060;-89
2023/11/18 04:23:48;;;;;;;30.35;17.55;;;7.50;99.90;;;;;;5096515;28;20103;-90
2023/11/18 04:26:14;;;;;;;27.33;16.67;;;7.50;99.90;;;;;;5096034;28;20017;-90
2023/11/18 04:28:39;;;;;;;23.17;15.98;;;7.40;99.90;;;;;;5096663;28;20085;-91
2023/11/18 04:31:05;;;;;;;23.80;16.45;;;7.50;99.90;;;;;;5096402;28;20375;-90
2023/11/18 04:33:31;;;;;;;25.70;17.17;;;7.40;99.90;;;;;;5095432;28;20464;-89
2023/11/18 04:35:57;;;;;;;28.13;16.02;;;7.50;99.90;;;;;;5096142;28;20035;-90
2023/11/18 04:38:25;;;;;;;26.70;17.38;;;7.50;99.90;;;;;;5096050;28;20024;-89
2023/11/18 04:40:50;;;;;;;24.00;16.75;;;7.40;99.90;;;;;;5096338;28;20415;-90
2023/11/18 04:43:16;;;;;;;25.92;16.65;;;7.50;99.90;;;;;;5095440;28;20046;-90
2023/11/18 04:45:44;;;;;;;25.88;16.77;;;7.50;99.90;;;;;;5095274;28;20027;-90
2023/11/18 04:48:10;;;;;;;23.10;16.02;;;7.50;99.90;;;;;;5096138;28;20069;-89
2023/11/18 04:50:35;;;;;;;24.85;16.52;;;7.40;99.90;;;;;;5102573;28;20428;-89
2023/11/18 04:53:03;;;;;;;23.40;15.93;;;7.50;99.90;;;;;;5099669;28;20034;-89
2023/11/18 04:55:29;;;;;;;23.10;16.27;;;7.50;99.90;;;;;;5101942;28;20483;-89
2023/11/18 04:57:55;;;;;;;28.75;16.38;;;7.40;99.90;;;;;;5095269;28;20055;-90
2023/11/18 05:00:21;;;;;;;25.30;16.15;;;7.50;99.90;;;;;;5094667;28;20031;-88
2023/11/18 05:02:47;;;;;;;27.10;15.95;;;7.50;99.90;;;;;;5095724;28;20043;-89
2023/11/18 05:05:14;;;;;;;26.27;17.17;;;7.50;99.90;;;;;;5093607;28;20408;-89
2023/11/18 05:07:40;;;;;;;22.17;15.38;;;7.50;99.90;;;;;;5094891;28;20035;-84
2023/11/18 05:10:13;;;;;;;24.80;15.25;;;7.50;99.90;;;;;;5094607;28;20021;-90
2023/11/18 05:12:39;;;;;;;21.33;14.55;;;7.50;99.90;;;;;;5098959;28;20044;-89
2023/11/18 05:15:07;;;;;;;27.02;15.77;;;7.50;99.90;;;;;;5102384;28;20101;-89
2023/11/18 05:17:35;;;;;;;24.88;15.88;;;7.50;99.90;;;;;;5094927;28;20043;-88
2023/11/18 05:20:02;;;;;;;33.00;15.98;;;7.40;99.90;;;;;;5095532;28;20020;-90
2023/11/18 05:22:28;;;;;;;23.02;15.75;;;7.50;99.90;;;;;;5097001;28;20388;-89
2023/11/18 05:24:53;;;;;;;27.63;16.05;;;7.50;99.90;;;;;;5096676;28;20042;-88
2023/11/18 05:27:19;;;;;;;23.90;16.02;;;7.60;99.90;;;;;;5096132;28;20038;-89
2023/11/18 05:29:47;;;;;;;22.30;14.95;;;7.50;99.90;;;;;;5095640;28;20502;-89
2023/11/18 05:32:13;;;;;;;28.70;15.23;;;7.50;99.90;;;;;;5094822;28;20035;-89
2023/11/18 05:34:38;;;;;;;22.95;15.27;;;7.90;99.90;;;;;;5094637;28;20020;-89
2023/11/18 05:37:04;;;;;;;28.15;16.45;;;8.30;99.90;;;;;;5094484;28;20051;-89
2023/11/18 05:39:30;;;;;;;23.48;14.85;;;7.60;99.90;;;;;;5094979;28;20475;-89
2023/11/18 05:41:58;;;;;;;27.65;15.88;;;7.60;99.90;;;;;;5094512;28;20032;-88
2023/11/18 05:44:30;;;;;;;28.80;15.60;;;7.60;99.90;;;;;;5095040;28;20067;-89
2023/11/18 05:46:59;;;;;;;29.38;15.75;;;7.60;99.90;;;;;;5094704;28;20031;-88
2023/11/18 05:49:25;;;;;;;23.75;14.55;;;7.50;99.90;;;;;;5093986;28;20024;-89
2023/11/18 05:51:51;;;;;;;34.97;14.20;;;7.50;99.90;;;;;;5094968;28;20048;-88
2023/11/18 05:54:17;;;;;;;27.00;13.80;;;7.50;99.90;;;;;;5096519;28;20020;-89
2023/11/18 05:56:43;;;;;;;31.30;14.43;;;7.50;99.90;;;;;;5094597;28;20021;-89
2023/11/18 05:59:09;;;;;;;27.33;14.40;;;7.50;99.90;;;;;;5094816;28;20024;-84
2023/11/18 06:01:34;;;;;;;25.42;14.02;;;7.50;99.90;;;;;;5094253;28;20062;-88
2023/11/18 06:04:00;;;;;;;32.13;14.32;;;7.60;99.90;;;;;;5094521;28;20074;-89
2023/11/18 06:06:26;;;;;;;31.27;15.35;;;7.50;99.90;;;;;;5096658;28;20023;-88
2023/11/18 06:08:53;;;;;;;27.33;14.38;;;7.50;99.90;;;;;;5100018;28;20028;-88
2023/11/18 06:11:19;;;;;;;31.55;15.20;;;7.50;99.90;;;;;;5093674;28;20028;-89
2023/11/18 06:13:47;;;;;;;30.52;14.43;;;7.50;99.90;;;;;;5093990;28;20020;-88
2023/11/18 06:16:16;;;;;;;27.95;15.10;;;7.50;99.90;;;;;;5094153;28;20084;-89
2023/11/18 06:18:46;;;;;;;32.57;16.37;;;7.50;99.90;;;;;;5093011;28;20418;-88
2023/11/18 06:21:17;;;;;;;27.67;13.15;;;7.60;99.90;;;;;;5094172;28;20055;-88
2023/11/18 06:23:45;;;;;;;31.27;14.80;;;7.60;99.90;;;;;;5093837;28;20078;-91
2023/11/18 06:26:11;;;;;;;32.22;15.05;;;7.50;99.90;;;;;;5092991;28;20028;-88
2023/11/18 06:28:44;;;;;;;24.58;14.07;;;7.50;99.90;;;;;;5093479;28;20020;-88
2023/11/18 06:31:11;;;;;;;32.80;13.27;;;7.60;99.90;;;;;;5091363;28;20035;-88
2023/11/18 06:33:38;;;;;;;25.55;13.70;;;7.50;99.90;;;;;;5093115;28;20047;-88
2023/11/18 06:36:05;;;;;;;25.77;13.82;;;7.50;99.90;;;;;;5094774;28;20429;-87
2023/11/18 06:38:31;;;;;;;28.23;13.85;;;7.50;99.90;;;;;;5092949;28;20030;-88
2023/11/18 06:40:59;;;;;;;25.58;14.38;;;7.50;99.90;;;;;;5096972;28;20371;-88
2023/11/18 06:43:25;;;;;;;27.65;12.90;;;7.50;99.90;;;;;;5084080;28;20036;-87
2023/11/18 06:45:51;;;;;;;25.90;13.52;;;7.50;99.90;;;;;;5088462;28;20021;-87
2023/11/18 06:48:19;;;;;;;22.55;11.90;;;7.50;99.90;;;;;;5083011;28;20028;-87
2023/11/18 06:50:46;;;;;;;24.55;12.27;;;7.50;99.90;;;;;;5083671;28;20028;-87
2023/11/18 06:53:12;;;;;;;23.25;11.18;;;7.50;99.90;;;;;;5083921;28;20023;-87
2023/11/18 06:55:37;;;;;;;29.23;12.57;;;7.50;99.90;;;;;;5084488;28;20081;-86
2023/11/18 06:58:03;;;;;;;26.88;13.15;;;7.50;99.90;;;;;;5081576;28;20413;-87
2023/11/18 07:00:29;;;;;;;26.45;12.85;;;7.50;99.90;;;;;;5084596;28;20562;-87
2023/11/18 07:02:55;;;;;;;24.20;11.77;;;8.00;99.90;;;;;;5090465;28;20041;-86
2023/11/18 07:05:23;;;;;;;23.25;12.73;;;7.50;99.90;;;;;;5081485;28;20020;-86
2023/11/18 07:07:49;;;;;;;27.48;12.63;;;7.50;99.90;;;;;;5083362;28;20020;-87
2023/11/18 07:10:18;;;;;;;24.17;12.25;;;7.50;99.90;;;;;;5081101;28;20016;-87
2023/11/18 07:12:44;;;;;;;21.20;11.77;;;7.50;99.90;;;;;;5088486;28;20028;-87
2023/11/18 07:15:10;;;;;;;27.00;11.50;;;7.50;99.90;;;;;;5089797;28;20024;-88
2023/11/18 07:17:36;;;;;;;22.17;11.85;;;7.50;99.90;;;;;;5084021;28;20024;-88
2023/11/18 07:20:02;;;;;;;18.40;11.38;;;7.60;99.90;;;;;;5085438;28;20019;-87
2023/11/18 07:22:29;;;;;;;24.08;10.90;;;7.60;99.90;;;;;;5082526;28;20479;-86
2023/11/18 07:24:54;;;;;;;23.60;11.45;;;7.60;99.90;;;;;;5082599;28;20031;-89
2023/11/18 07:27:20;;;;;;;15.73;10.52;;;7.60;99.90;;;;;;5085592;28;20025;-87
2023/11/18 07:29:45;;;;;;;15.90;10.60;;;7.60;99.90;;;;;;5084913;28;20025;-85
2023/11/18 07:32:11;;;;;;;16.35;10.93;;;7.60;99.90;;;;;;5080134;28;20067;-86
2023/11/18 07:34:38;;;;;;;19.83;11.05;;;7.60;99.90;;;;;;5074559;28;20031;-86
2023/11/18 07:37:03;;;;;;;22.13;10.05;;;7.70;99.90;;;;;;5079854;28;20406;-87
2023/11/18 07:39:43;;;;;;;31.20;10.63;;;7.70;99.90;;;;;;5096325;28;20024;-87
2023/11/18 07:42:11;;;;;;;16.58;10.60;;;7.70;99.90;;;;;;5095995;28;20085;-85
2023/11/18 07:44:38;;;;;;;19.05;9.90;;;7.60;99.90;;;;;;5095974;28;20479;-86
2023/11/18 07:47:05;;;;;;;17.70;10.32;;;7.60;99.90;;;;;;5096631;28;20034;-88
2023/11/18 07:49:31;;;;;;;22.50;10.07;;;8.10;99.90;;;;;;5095732;28;20110;-87
2023/11/18 07:51:57;;;;;;;30.25;11.25;;;7.70;99.90;;;;;;5097049;28;20028;-87
2023/11/18 07:54:23;;;;;;;18.92;10.07;;;7.70;99.90;;;;;;5096693;28;20549;-86
2023/11/18 07:56:49;;;;;;;22.38;10.10;;;7.80;99.90;;;;;;5096504;28;20059;-86
2023/11/18 07:59:18;;;;;;;15.98;9.32;;;7.70;99.90;;;;;;5096771;28;20060;-87
2023/11/18 08:01:44;;;;;;;19.15;8.77;;;7.70;99.90;;;;;;5095770;28;20115;-87
2023/11/18 08:04:10;;;;;;;21.92;9.52;;;7.70;99.90;;;;;;5095349;28;20472;-87
2023/11/18 08:06:35;;;;;;;13.48;8.35;;;8.10;99.90;;;;;;5095930;28;20032;-87
2023/11/18 08:09:02;;;;;;;16.27;8.80;;;7.70;99.90;;;;;;5096122;28;20047;-85
2023/11/18 08:11:29;;;;;;;20.40;9.27;;;7.70;99.90;;;;;;5094926;28;20063;-87
2023/11/18 08:13:55;;;;;;;14.85;8.85;;;7.70;99.90;;;;;;5096302;28;20035;-87
2023/11/18 08:16:22;;;;;;;19.25;8.65;;;7.70;99.90;;;;;;5095313;28;20063;-86
2023/11/18 08:18:47;;;;;;;16.45;8.05;;;7.70;99.90;;;;;;5094739;28;20491;-87
2023/11/18 08:21:13;;;;;;;10.65;7.68;;;7.70;99.90;;;;;;5096256;28;20052;-87
2023/11/18 08:23:39;;;;;;;23.45;9.55;;;7.70;99.90;;;;;;5095174;28;20119;-87
2023/11/18 08:26:05;;;;;;;18.58;8.73;;;7.70;99.90;;;;;;5096235;28;20107;-86
2023/11/18 08:28:31;;;;;;;15.70;7.75;;;7.70;99.90;;;;;;5095697;28;20059;-86
2023/11/18 08:30:56;;;;;;;23.65;7.57;;;7.70;99.90;;;;;;5095034;28;20024;-87
2023/11/18 08:33:25;;;;;;;15.35;7.50;;;7.70;99.90;;;;;;5095487;28;20483;-86
2023/11/18 08:35:51;;;;;;;17.58;7.65;;;7.70;99.90;;;;;;5095814;28;20075;-86
2023/11/18 08:38:17;;;;;;;16.95;8.32;;;7.70;99.90;;;;;;5094071;28;20484;-85
2023/11/18 08:40:44;;;;;;;13.65;7.22;;;7.70;99.90;;;;;;5094180;28;20039;-86
2023/11/18 08:43:11;;;;;;;12.40;7.47;;;7.70;99.90;;;;;;5096362;28;20048;-89
2023/11/18 08:45:37;;;;;;;21.08;7.28;;;7.80;99.90;;;;;;5090538;28;20026;-88
2023/11/18 08:48:10;;;;;;;18.38;8.02;;;7.70;99.90;;;;;;5095905;28;20039;-89
2023/11/18 08:50:39;;;;;;;23.08;8.18;;;7.80;99.90;;;;;;5075384;28;20028;-90
2023/11/18 08:53:05;;;;;;;14.07;7.10;;;7.80;99.90;;;;;;5073975;28;20028;-89
2023/11/18 08:55:50;;;;;;;16.63;6.75;;;7.80;99.90;;;;;;5075848;28;20028;-89
2023/11/18 08:58:19;;;;;;;17.50;7.43;;;7.80;99.90;;;;;;5094940;28;20260;-90
2023/11/18 09:01:04;;;;;;;17.42;6.95;;;7.80;99.90;;;;;;5093782;28;20025;-89
2023/11/18 09:03:36;;;;;;;13.05;6.78;;;7.80;99.90;;;;;;5080985;28;20032;-89
2023/11/18 09:06:17;;;;;;;11.50;6.53;;;7.80;99.90;;;;;;5088015;28;20491;-89
2023/11/18 09:08:43;;;;;;;15.82;7.18;;;7.90;99.90;;;;;;5086736;28;20419;-89
2023/11/18 09:11:10;;;;;;;14.05;6.53;;;7.80;99.90;;;;;;5092503;28;20476;-85
2023/11/18 09:13:38;;;;;;;10.02;6.68;;;7.80;99.90;;;;;;5074200;28;20062;-86
2023/11/18 09:16:09;;;;;;;13.20;5.50;;;7.80;99.90;;;;;;5084716;28;20043;-85
2023/11/18 09:18:35;;;;;;;;;;;7.90;99.90;;;;;;5094083;28;20020;-88
2023/11/18 09:21:03;;;;;;;12.38;5.70;;;7.90;99.90;;;;;;5089291;28;19999;-92
2023/11/18 09:23:31;;;;;;;17.33;6.97;;;7.80;99.90;;;;;;5088139;28;20039;-90
2023/11/18 09:25:57;;;;;;;14.75;5.80;;;7.80;99.90;;;;;;5097689;28;20031;-91
2023/11/18 09:28:30;;;;;;;13.52;5.85;;;7.90;99.90;;;;;;5096867;28;20024;-90
2023/11/18 09:31:00;;;;;;;12.07;5.88;;;7.80;99.90;;;;;;5097511;28;20024;-90
2023/11/18 09:33:32;;;;;;;23.40;6.22;;;7.90;99.90;;;;;;5095336;28;20036;-90
2023/11/18 09:36:08;;;;;;;10.85;5.07;;;7.90;99.90;;;;;;5093870;28;20043;-89
2023/11/18 09:38:35;;;;;;;12.73;5.60;;;7.80;99.90;;;;;;5096205;28;20081;-88
2023/11/18 09:41:11;;;;;;;9.95;4.72;;;7.80;99.90;;;;;;5089974;28;20051;-84
2023/11/18 09:43:47;;;;;;;15.15;5.93;;;7.80;99.90;;;;;;5083578;28;20065;-84
2023/11/18 09:46:32;;;;;;;14.23;6.00;;;7.90;99.90;;;;;;5086398;28;20016;-87
2023/11/18 09:49:25;;;;;;;13.63;5.78;;;9.00;99.90;;;;;;5085501;28;20021;-86
2023/11/18 09:51:54;;;;;;;12.57;5.22;;;8.00;99.90;;;;;;5074639;28;20036;-88
2023/11/18 09:54:38;;;;;;;13.77;5.30;;;7.90;99.90;;;;;;5078462;28;20012;-87
2023/11/18 09:57:08;;;;;;;9.52;4.50;;;8.00;99.90;;;;;;5077187;28;20048;-88
2023/11/18 10:00:26;;;;;;;19.40;5.55;;;8.00;99.90;;;;;;5082208;28;20037;-92
2023/11/18 10:02:52;;;;;;;16.20;4.68;;;8.10;99.90;;;;;;5027971;28;20509;-88
2023/11/18 10:05:22;;;;;;;13.45;4.82;;;8.10;99.90;;;;;;5029561;28;20362;-86
2023/11/18 10:07:48;;;;;;;13.00;4.78;;;8.10;99.90;;;;;;5058047;28;20028;-88
2023/11/18 10:10:15;;;;;;;18.73;4.38;;;8.10;99.90;;;;;;5085808;28;20472;-87
2023/11/18 10:12:52;;;;;;;13.70;5.00;;;8.10;99.90;;;;;;5083278;28;20139;-86
2023/11/18 10:15:19;;;;;;;15.25;5.43;;;8.10;99.90;;;;;;5084989;28;20016;-85
2023/11/18 10:17:59;;;;;;;13.80;6.25;;;8.20;99.90;;;;;;5084798;28;20028;-86
2023/11/18 10:20:45;;;;;;;11.05;5.65;;;8.20;99.90;;;;;;5085177;28;20051;-81
2023/11/18 10:23:12;;;;;;;13.60;5.80;;;8.20;99.90;;;;;;5085827;28;20031;-87
2023/11/18 10:25:49;;;;;;;10.68;5.78;;;8.20;99.90;;;;;;5078323;28;20074;-88
2023/11/18 10:28:37;;;;;;;14.98;6.78;;;8.20;99.90;;;;;;5086489;28;20028;-84
2023/11/18 10:31:09;;;;;;;17.42;7.22;;;8.30;99.90;;;;;;5084186;28;20031;-83
2023/11/18 10:33:37;;;;;;;16.30;8.68;;;8.30;99.90;;;;;;5085987;28;20033;-84
2023/11/18 10:36:04;;;;;;;8.40;5.40;;;8.30;99.90;;;;;;5087057;28;20044;-85
2023/11/18 10:38:49;;;;;;;7.60;3.80;;;8.30;99.90;;;;;;5074089;28;20047;-85
2023/11/18 10:41:16;;;;;;;8.65;3.70;;;8.30;99.90;;;;;;5080262;28;20534;-88
2023/11/18 10:43:44;;;;;;;7.05;3.85;;;8.30;99.90;;;;;;5081085;28;20040;-87
2023/11/18 10:46:13;;;;;;;11.70;3.88;;;8.30;99.90;;;;;;5083451;28;20125;-89
2023/11/18 10:48:43;;;;;;;11.55;4.55;;;8.30;99.90;;;;;;5084679;28;20025;-84
2023/11/18 10:51:11;;;;;;;4.95;3.42;;;8.30;99.90;;;;;;5080107;28;20064;-85
2023/11/18 10:53:38;;;;;;;12.32;5.10;;;8.40;99.90;;;;;;5077307;28;20050;-85
2023/11/18 10:56:05;;;;;;;8.00;3.67;;;8.40;99.90;;;;;;5075014;28;20036;-86
2023/11/18 10:58:41;;;;;;;9.10;3.50;;;8.40;99.90;;;;;;5082053;28;20032;-87
2023/11/18 11:01:11;;;;;;;6.32;3.78;;;8.40;99.90;;;;;;5084890;28;20059;-89
2023/11/18 11:03:55;;;;;;;10.73;4.00;;;8.90;99.90;;;;;;5076389;28;20044;-85
2023/11/18 11:06:25;;;;;;;8.38;4.47;;;8.40;99.90;;;;;;5075843;28;20039;-86
2023/11/18 11:08:52;;;;;;;18.33;4.00;;;8.40;99.90;;;;;;5080250;28;20042;-86
2023/11/18 11:11:21;;;;;;;6.60;3.55;;;8.50;99.90;;;;;;5081855;28;20162;-85
2023/11/18 11:14:03;;;;;;;14.57;4.35;;;8.40;99.90;;;;;;5072740;28;20166;-85
2023/11/18 11:16:38;;;;;;;13.10;4.20;;;8.40;99.90;;;;;;5077872;28;20373;-86
2023/11/18 11:19:08;;;;;;;9.75;5.43;;;8.40;99.90;;;;;;5082883;28;20039;-84
2023/11/18 11:21:47;;;;;;;13.63;5.50;;;8.50;99.90;;;;;;5072794;28;20175;-88
2023/11/18 11:24:33;;;;;;;12.50;4.30;;;8.70;99.90;;;;;;5081090;28;20052;-90
2023/11/18 11:27:23;;;;;;;6.28;3.17;;;8.40;99.90;;;;;;5095704;28;20024;-86
2023/11/18 11:30:10;;;;;;;12.63;3.90;;;8.50;99.90;;;;;;5078912;28;20051;-87
2023/11/18 11:32:59;;;;;;;5.80;4.03;;;8.40;99.90;;;;;;5075728;28;20372;-86
2023/11/18 11:35:32;;;;;;;9.43;3.90;;;8.40;99.90;;;;;;5069186;28;20070;-86
2023/11/18 11:38:13;;;;;;;9.52;3.58;;;8.40;99.90;;;;;;5071577;28;20357;-86
2023/11/18 11:40:41;;;;;;;13.25;5.35;;;8.50;99.90;;;;;;5072228;28;20422;-86
2023/11/18 11:43:10;;;;;;;9.30;4.07;;;8.50;99.90;;;;;;5077863;28;20086;-86
2023/11/18 11:45:37;;;;;;;7.72;4.05;;;8.50;99.90;;;;;;5078439;28;20024;-87
2023/11/18 11:48:14;;;;;;;6.40;3.53;;;9.00;99.90;;;;;;5078658;28;20036;-86
2023/11/18 11:51:20;;;;;;;13.65;3.95;;;8.60;99.90;;;;;;5081368;28;20103;-86
2023/11/18 11:54:15;;;;;;;4.82;3.15;;;8.60;99.90;;;;;;5082718;28;20050;-87
2023/11/18 11:56:49;;;;;;;8.90;3.45;;;8.60;99.90;;;;;;5075299;28;20024;-85
2023/11/18 11:59:35;;;;;;;11.93;3.88;;;8.60;99.90;;;;;;5073520;28;20036;-85
2023/11/18 12:02:07;;;;;;;10.32;3.28;;;8.50;99.90;;;;;;5085718;28;20394;-87
2023/11/18 12:04:37;;;;;;;9.38;3.58;;;8.60;99.90;;;;;;5074707;28;20045;-88
2023/11/18 12:07:08;;;;;;;7.40;3.40;;;8.60;99.90;;;;;;5084551;28;20032;-87
2023/11/18 12:09:39;;;;;;;7.07;3.20;;;8.60;99.90;;;;;;5077222;28;20043;-88
2023/11/18 12:12:09;;;;;;;5.32;2.78;;;8.70;99.90;;;;;;5083716;28;20047;-88
2023/11/18 12:14:50;;;;;;;10.30;4.38;;;8.60;99.90;;;;;;5087895;28;20534;-88
2023/11/18 12:17:21;;;;;;;;;;;8.90;99.90;;;;;;5079739;28;20036;-87
2023/11/18 12:19:48;;;;;;;6.10;2.88;;;8.50;99.90;;;;;;5091773;28;19915;-87
2023/11/18 12:22:26;;;;;;;7.57;2.78;;;8.60;99.90;;;;;;5087453;28;20048;-92
2023/11/18 12:24:58;;;;;;;9.70;3.55;;;8.60;99.90;;;;;;5083790;28;20025;-89
2023/11/18 12:27:51;;;;;;;8.40;3.80;;;8.60;99.90;;;;;;5086271;28;20036;-88
2023/11/18 12:30:22;;;;;;;6.32;3.47;;;8.60;99.90;;;;;;5072629;28;20099;-87
2023/11/18 12:33:01;;;;;;;5.30;2.67;;;8.70;99.90;;;;;;5090308;28;20653;-82
2023/11/18 12:35:30;;;;;;;6.00;3.20;;;8.60;99.90;;;;;;5085809;28;20482;-89
2023/11/18 12:38:24;;;;;;;4.45;2.72;;;8.60;99.90;;;;;;5075439;28;20158;-86
2023/11/18 12:40:59;;;;;;;6.10;2.35;;;8.70;99.90;;;;;;5080798;28;20458;-86
2023/11/18 12:44:02;;;;;;;5.95;3.28;;;8.70;99.90;;;;;;5073625;28;20127;-88
2023/11/18 12:47:09;;;;;;;3.33;2.10;;;8.70;99.90;;;;;;5084991;28;20109;-89
2023/11/18 12:49:40;;;;;;;7.78;2.55;;;8.80;99.90;;;;;;5061365;28;20032;-87
2023/11/18 12:52:08;;;;;;;6.93;2.92;;;8.70;99.90;;;;;;5085492;28;20029;-87
2023/11/18 12:54:38;;;;;;;5.05;3.10;;;8.70;99.90;;;;;;5082656;28;20025;-89